Time;durP1;ratioP1;P1;durP2;ratioP2;P2;SDS_P1;SDS_P2;PMS_P1;PMS_P2;Temp;Humidity;BMP_temperature;BMP_pressure;BME280_temperature;BME280_humidity;BME280_pressure;Samples;Min_cycle;Max_cycle;Signal;HPM_P1;HPM_P2
2023/04/10 00:01:21;;;;;;;0.10;0.10;;;;;;;8.42;43.20;100644.09;5003987;28;20064;-68
2023/04/10 00:03:47;;;;;;;0.13;0.13;;;;;;;8.42;43.15;100651.44;5013782;28;20129;-69
2023/04/10 00:06:13;;;;;;;0.10;0.10;;;;;;;8.39;43.16;100650.03;5018408;28;20128;-68
2023/04/10 00:08:39;;;;;;;0.20;0.20;;;;;;;8.42;43.48;100649.56;5019448;28;20056;-69
2023/04/10 00:11:06;;;;;;;0.10;0.10;;;;;;;8.45;43.41;100649.06;5011484;28;20046;-68
2023/04/10 00:13:33;;;;;;;0.10;0.10;;;;;;;8.47;43.55;100648.84;4996209;28;20144;-69
2023/04/10 00:15:59;;;;;;;0.20;0.20;;;;;;;8.50;43.49;100653.84;5002259;28;20080;-69
2023/04/10 00:18:26;;;;;;;0.10;0.10;;;;;;;8.50;43.30;100659.28;5003856;28;20053;-68
2023/04/10 00:20:52;;;;;;;0.88;0.22;;;;;;;8.51;43.05;100661.78;4982541;28;20115;-68
2023/04/10 00:23:18;;;;;;;0.20;0.20;;;;;;;8.47;43.16;100649.66;5013882;28;20080;-70
2023/04/10 00:25:46;;;;;;;0.10;0.10;;;;;;;8.52;43.20;100654.41;5010065;28;20067;-70
2023/04/10 00:28:13;;;;;;;0.20;0.20;;;;;;;8.51;43.05;100650.88;4987063;28;20061;-69
2023/04/10 00:30:40;;;;;;;0.20;0.20;;;;;;;8.51;43.25;100658.22;5017209;28;20056;-70
2023/04/10 00:33:06;;;;;;;0.20;0.20;;;;;;;8.53;43.26;100650.63;5018035;28;20052;-69
2023/04/10 00:35:32;;;;;;;0.10;0.10;;;;;;;8.58;43.05;100647.19;5001076;28;21785;-70
2023/04/10 00:37:58;;;;;;;0.10;0.10;;;;;;;8.61;43.08;100653.00;5015629;28;20053;-70
2023/04/10 00:40:25;;;;;;;0.10;0.10;;;;;;;8.62;43.00;100654.66;5009102;28;20050;-70
2023/04/10 00:42:51;;;;;;;0.17;0.17;;;;;;;8.61;42.83;100653.00;5005042;28;20144;-69
2023/04/10 00:45:18;;;;;;;0.10;0.10;;;;;;;8.62;43.31;100653.81;5000201;28;20058;-69
2023/04/10 00:47:46;;;;;;;0.10;0.10;;;;;;;8.61;42.92;100660.31;5015883;28;20111;-68
2023/04/10 00:50:12;;;;;;;0.10;0.10;;;;;;;8.63;42.97;100661.75;5013138;28;20435;-68
2023/04/10 00:52:38;;;;;;;0.10;0.10;;;;;;;8.64;43.20;100668.03;4988073;28;20065;-68
2023/04/10 00:55:06;;;;;;;0.55;0.20;;;;;;;8.65;42.96;100661.50;4995826;28;20061;-68
2023/04/10 00:57:32;;;;;;;;;;;;;;;8.68;42.87;100657.47;5015209;28;20404;-67
2023/04/10 00:59:59;;;;;;;0.10;0.10;;;;;;;8.68;42.81;100660.19;4996550;28;19925;-68
2023/04/10 01:02:25;;;;;;;0.20;0.20;;;;;;;8.67;42.86;100659.38;5016307;28;20053;-68
2023/04/10 01:04:53;;;;;;;0.10;0.10;;;;;;;8.67;42.67;100653.94;4999697;28;20107;-69
2023/04/10 01:07:30;;;;;;;0.10;0.10;;;;;;;8.67;42.95;100656.66;4984650;28;20056;-69
2023/04/10 01:10:03;;;;;;;0.40;0.20;;;;;;;8.69;43.00;100653.66;5019462;28;20106;-70
2023/04/10 01:12:44;;;;;;;0.10;0.10;;;;;;;8.72;42.76;100645.00;4978600;28;20046;-70
2023/04/10 01:15:14;;;;;;;0.63;0.30;;;;;;;8.73;42.72;100646.66;5014398;28;20075;-69
2023/04/10 01:17:49;;;;;;;0.10;0.10;;;;;;;8.71;42.48;100646.06;4997586;28;20046;-69
2023/04/10 01:20:21;;;;;;;0.13;0.13;;;;;;;8.72;42.34;100645.00;5018238;28;20065;-71
2023/04/10 01:23:12;;;;;;;0.20;0.15;;;;;;;8.70;42.44;100649.88;5000209;28;20091;-70
2023/04/10 01:25:42;;;;;;;0.10;0.10;;;;;;;8.67;42.61;100653.94;5016454;28;20050;-70
2023/04/10 01:28:22;;;;;;;0.10;0.10;;;;;;;8.69;42.23;100659.97;4988984;28;20537;-69
2023/04/10 01:30:55;;;;;;;0.20;0.20;;;;;;;8.64;42.36;100657.13;5005421;28;20461;-70
2023/04/10 01:33:28;;;;;;;0.22;0.17;;;;;;;8.67;42.40;100653.09;5017194;28;20466;-70
2023/04/10 01:35:56;;;;;;;0.10;0.10;;;;;;;8.45;42.64;100615.56;4994152;28;20443;-69
2023/04/10 01:38:25;;;;;;;0.20;0.20;;;;;;;8.63;42.64;100648.13;5003513;28;20525;-68
2023/04/10 01:40:53;;;;;;;0.10;0.10;;;;;;;8.63;42.61;100645.41;4993997;28;20080;-68
2023/04/10 01:43:32;;;;;;;0.10;0.10;;;;;;;8.65;42.88;100645.13;4974173;28;20060;-69
2023/04/10 01:46:01;;;;;;;0.10;0.10;;;;;;;8.63;42.92;100650.00;4973977;28;20046;-69
2023/04/10 01:48:29;;;;;;;0.20;0.20;;;;;;;8.65;42.99;100648.72;5012885;28;20046;-68
2023/04/10 01:50:56;;;;;;;1.33;0.20;;;;;;;8.64;42.96;100647.06;4984613;28;20052;-68
2023/04/10 01:53:23;;;;;;;0.20;0.20;;;;;;;8.67;42.77;100655.81;5002992;28;20088;-68
2023/04/10 01:55:50;;;;;;;0.27;0.20;;;;;;;8.69;42.93;100653.66;4995465;28;20045;-69
2023/04/10 01:58:17;;;;;;;0.20;0.20;;;;;;;8.70;43.14;100658.06;5006302;28;20390;-68
2023/04/10 02:00:43;;;;;;;0.20;0.20;;;;;;;8.69;43.06;100654.50;4977587;28;20046;-68
2023/04/10 02:03:11;;;;;;;0.17;0.15;;;;;;;8.72;42.98;100654.03;5018410;28;20049;-68
2023/04/10 02:05:44;;;;;;;;;;;;;;;8.69;43.04;100651.78;4979189;28;20512;-68
2023/04/10 02:08:17;;;;;;;0.10;0.10;;;;;;;8.66;43.01;100654.97;4988827;28;19964;-70
2023/04/10 02:10:55;;;;;;;0.10;0.10;;;;;;;8.61;43.32;100655.72;5003896;28;20502;-70
2023/04/10 02:13:27;;;;;;;0.15;0.15;;;;;;;8.60;43.31;100651.34;5013315;28;20160;-69
2023/04/10 02:15:55;;;;;;;0.10;0.10;;;;;;;8.57;43.74;100654.53;4994316;28;20531;-69
2023/04/10 02:18:24;;;;;;;0.47;0.30;;;;;;;8.57;43.83;100649.06;5012698;28;20283;-70
2023/04/10 02:20:51;;;;;;;0.10;0.10;;;;;;;8.55;43.90;100650.41;5001947;28;20089;-70
2023/04/10 02:23:19;;;;;;;0.28;0.25;;;;;;;8.53;44.10;100647.09;5003244;28;20051;-69
2023/04/10 02:25:45;;;;;;;0.20;0.20;;;;;;;8.59;43.95;100643.38;5003086;28;20053;-70
2023/04/10 02:28:11;;;;;;;0.20;0.20;;;;;;;8.59;43.93;100644.22;4991406;28;20049;-70
2023/04/10 02:30:38;;;;;;;0.17;0.17;;;;;;;8.55;44.17;100647.66;4999421;28;20045;-70
2023/04/10 02:33:04;;;;;;;0.20;0.20;;;;;;;8.53;43.98;100650.63;4983380;28;20053;-68
2023/04/10 02:35:32;;;;;;;0.15;0.15;;;;;;;8.52;44.28;100654.41;4987296;28;20042;-69
2023/04/10 02:37:59;;;;;;;0.20;0.20;;;;;;;8.53;44.58;100653.34;4995623;28;20050;-69
2023/04/10 02:40:25;;;;;;;0.20;0.20;;;;;;;8.54;44.47;100651.47;4993294;28;20232;-69
2023/04/10 02:43:07;;;;;;;0.20;0.20;;;;;;;8.57;44.53;100650.97;5004173;28;20046;-70
2023/04/10 02:45:33;;;;;;;0.10;0.10;;;;;;;8.58;44.57;100653.44;4972875;28;20045;-69
2023/04/10 02:47:59;;;;;;;0.20;0.20;;;;;;;8.60;45.27;100651.34;5005557;28;20041;-70
2023/04/10 02:50:28;;;;;;;0.15;0.15;;;;;;;8.53;45.67;100652.53;4992815;28;20046;-69
2023/04/10 02:52:56;;;;;;;0.17;0.17;;;;;;;8.51;45.84;100650.03;4985424;28;20535;-68
2023/04/10 02:55:22;;;;;;;;;;;;;;;8.53;45.78;100649.81;4964900;28;20096;-68
2023/04/10 02:57:48;;;;;;;0.20;0.20;;;;;;;8.59;45.58;100649.69;4995838;28;19965;-69
2023/04/10 03:00:15;;;;;;;0.20;0.20;;;;;;;8.62;45.52;100648.34;4993652;28;20119;-68
2023/04/10 03:03:07;;;;;;;0.35;0.20;;;;;;;8.62;45.52;100654.66;5016190;28;20131;-70
2023/04/10 03:05:41;;;;;;;0.47;0.20;;;;;;;8.66;45.40;100657.69;5001113;28;20049;-69
2023/04/10 03:08:09;;;;;;;0.15;0.15;;;;;;;8.65;45.00;100648.72;5005320;28;20152;-70
2023/04/10 03:10:35;;;;;;;;;;;;;;;8.71;45.18;100657.81;5000370;28;20144;-70
2023/04/10 03:13:01;;;;;;;0.10;0.10;;;;;;;8.75;44.99;100655.44;5010526;28;20015;-70
2023/04/10 03:15:27;;;;;;;0.38;0.20;;;;;;;8.76;44.94;100652.47;4966589;28;20046;-70
2023/04/10 03:17:53;;;;;;;0.13;0.13;;;;;;;8.75;45.07;100647.28;5003652;28;20172;-69
2023/04/10 03:20:19;;;;;;;0.20;0.20;;;;;;;8.75;45.23;100650.00;4997830;28;20062;-70
2023/04/10 03:22:45;;;;;;;0.20;0.20;;;;;;;8.78;45.28;100654.97;4987152;28;20042;-70
2023/04/10 03:25:13;;;;;;;1.20;0.30;;;;;;;8.82;45.36;100647.09;5007823;28;20060;-70
2023/04/10 03:27:39;;;;;;;0.22;0.20;;;;;;;8.83;45.50;100648.78;4998114;28;20050;-70
2023/04/10 03:30:08;;;;;;;0.25;0.20;;;;;;;8.86;45.48;100642.84;5004932;28;20049;-70
2023/04/10 03:32:41;;;;;;;1.33;0.30;;;;;;;8.92;45.45;100645.44;5015018;28;20195;-70
2023/04/10 03:35:08;;;;;;;0.20;0.20;;;;;;;8.98;45.32;100651.81;4975968;28;20211;-68
2023/04/10 03:37:34;;;;;;;0.20;0.20;;;;;;;9.03;45.15;100648.34;5004564;28;20053;-68
2023/04/10 03:40:00;;;;;;;0.10;0.10;;;;;;;9.03;45.01;100651.91;5012563;28;20172;-70
2023/04/10 03:42:28;;;;;;;0.25;0.25;;;;;;;9.03;45.00;100651.91;4983978;28;20069;-70
2023/04/10 03:44:54;;;;;;;0.20;0.20;;;;;;;9.11;44.86;100649.84;5009403;28;20057;-70
2023/04/10 03:47:21;;;;;;;0.20;0.20;;;;;;;9.12;44.60;100649.59;4970932;28;20041;-69
2023/04/10 03:49:50;;;;;;;0.20;0.20;;;;;;;9.11;44.53;100645.22;4995036;28;20049;-70
2023/04/10 03:52:16;;;;;;;0.30;0.30;;;;;;;9.18;44.59;100647.81;4977098;28;20054;-70
2023/04/10 03:54:42;;;;;;;0.65;0.40;;;;;;;9.24;44.45;100651.47;5004435;28;20558;-70
2023/04/10 03:57:19;;;;;;;0.32;0.20;;;;;;;9.29;44.20;100649.66;4996593;28;20100;-70
2023/04/10 03:59:48;;;;;;;0.73;0.30;;;;;;;9.31;44.18;100644.78;4987062;28;20052;-70
2023/04/10 04:02:14;;;;;;;;;;;;;;;9.41;44.46;100643.28;4996908;28;20053;-70
2023/04/10 04:04:42;;;;;;;0.20;0.20;;;;;;;9.42;44.31;100647.66;5019151;28;19931;-69
2023/04/10 04:07:26;;;;;;;0.20;0.20;;;;;;;9.38;44.42;100639.16;5017057;28;20041;-70
2023/04/10 04:10:14;;;;;;;0.22;0.20;;;;;;;9.44;44.19;100654.53;5000449;28;20042;-70
2023/04/10 04:13:06;;;;;;;0.28;0.28;;;;;;;9.45;44.44;100655.38;5008557;28;20525;-69
2023/04/10 04:15:41;;;;;;;0.20;0.20;;;;;;;9.57;44.18;100644.38;5007921;28;20529;-69
2023/04/10 04:18:35;;;;;;;0.20;0.20;;;;;;;9.65;44.21;100642.06;5004658;28;20146;-69
2023/04/10 04:21:18;;;;;;;0.40;0.40;;;;;;;9.82;43.91;100648.59;4983082;28;20168;-69
2023/04/10 04:24:05;;;;;;;0.20;0.20;;;;;;;9.96;43.80;100644.44;5007426;28;20060;-69
2023/04/10 04:26:50;;;;;;;0.30;0.30;;;;;;;10.19;43.48;100643.41;5018004;28;20108;-68
2023/04/10 04:29:34;;;;;;;0.25;0.25;;;;;;;10.43;43.00;100647.84;4990328;28;20070;-68
2023/04/10 04:32:16;;;;;;;0.55;0.30;;;;;;;10.62;42.62;100651.13;4988507;28;20053;-68
2023/04/10 04:35:03;;;;;;;0.30;0.30;;;;;;;10.81;42.49;100643.44;4980727;28;20260;-68
2023/04/10 04:37:49;;;;;;;0.30;0.30;;;;;;;10.93;42.30;100646.00;5019315;28;20057;-68
2023/04/10 04:40:23;;;;;;;0.38;0.30;;;;;;;11.04;42.38;100655.16;5005069;28;20068;-69
2023/04/10 04:43:04;;;;;;;0.30;0.30;;;;;;;11.14;42.15;100638.00;4993193;28;20042;-68
2023/04/10 04:45:56;;;;;;;0.30;0.30;;;;;;;11.31;42.00;100643.41;4984080;28;20073;-68
2023/04/10 04:48:39;;;;;;;0.40;0.30;;;;;;;11.51;41.62;100637.28;4988035;28;20037;-68
2023/04/10 04:51:26;;;;;;;0.30;0.30;;;;;;;11.62;41.49;100644.47;5000078;28;20050;-68
2023/04/10 04:54:03;;;;;;;0.30;0.30;;;;;;;11.79;41.35;100635.31;4999687;28;20139;-69
2023/04/10 04:57:00;;;;;;;0.57;0.30;;;;;;;11.98;40.99;100643.13;5010824;28;20049;-69
2023/04/10 04:59:40;;;;;;;0.43;0.30;;;;;;;12.12;40.93;100635.28;4984312;28;20414;-69
2023/04/10 05:02:17;;;;;;;0.30;0.30;;;;;;;12.28;40.64;100645.25;5006168;28;20061;-70
2023/04/10 05:04:57;;;;;;;0.30;0.30;;;;;;;12.39;40.67;100643.38;5019421;28;20040;-69
2023/04/10 05:07:31;;;;;;;0.50;0.40;;;;;;;12.43;40.41;100650.00;5016236;28;20065;-69
2023/04/10 05:10:22;;;;;;;0.20;0.20;;;;;;;12.35;40.51;100642.25;4981644;28;20052;-69
2023/04/10 05:13:06;;;;;;;0.28;0.28;;;;;;;12.29;40.83;100641.41;5015858;28;20042;-69
2023/04/10 05:15:53;;;;;;;0.20;0.20;;;;;;;12.27;40.79;100642.78;5005642;28;20153;-69
2023/04/10 05:18:57;;;;;;;0.63;0.30;;;;;;;12.35;40.95;100642.25;4925022;29;20075;-69
2023/04/10 05:21:45;;;;;;;0.28;0.28;;;;;;;12.56;40.72;100637.72;4925759;29;20143;-70
2023/04/10 05:24:22;;;;;;;0.22;0.22;;;;;;;12.74;40.09;100650.13;4908869;29;20329;-69
2023/04/10 05:27:08;;;;;;;0.30;0.30;;;;;;;12.77;39.91;100649.59;4923220;29;20128;-70
2023/04/10 05:30:01;;;;;;;0.20;0.20;;;;;;;12.84;39.65;100656.75;4925375;29;20559;-69
2023/04/10 05:32:56;;;;;;;0.30;0.30;;;;;;;12.97;39.58;100653.50;4906355;29;20056;-70
2023/04/10 05:35:22;;;;;;;1.00;0.40;;;;;;;12.98;39.45;100657.88;4909368;29;20427;-70
2023/04/10 05:38:09;;;;;;;0.20;0.20;;;;;;;12.80;39.98;100656.47;4924215;29;20095;-70
2023/04/10 05:40:55;;;;;;;0.45;0.30;;;;;;;12.60;40.25;100658.00;4912574;29;20150;-69
2023/04/10 05:43:57;;;;;;;0.38;0.30;;;;;;;12.72;39.89;100668.78;4926425;29;20054;-70
2023/04/10 05:46:52;;;;;;;0.30;0.30;;;;;;;12.80;39.71;100663.88;4887164;29;20059;-70
2023/04/10 05:49:21;;;;;;;0.20;0.20;;;;;;;12.79;39.74;100665.78;4947771;28;20054;-69
2023/04/10 05:52:07;;;;;;;0.30;0.30;;;;;;;12.78;39.81;100664.13;5007691;28;20072;-70
2023/04/10 05:55:13;;;;;;;0.20;0.20;;;;;;;12.96;39.34;100659.28;4646586;28;10001424;-70
2023/04/10 05:58:12;;;;;;;0.30;0.30;;;;;;;13.21;39.24;100668.66;4996208;28;20061;-70
2023/04/10 06:01:01;;;;;;;0.30;0.30;;;;;;;13.52;38.70;100655.81;4977698;28;20065;-70
2023/04/10 06:03:54;;;;;;;0.30;0.30;;;;;;;13.99;37.69;100651.13;5009255;28;20049;-70
2023/04/10 06:06:23;;;;;;;0.30;0.30;;;;;;;14.14;37.53;100665.94;4978352;28;20045;-70
2023/04/10 06:08:49;;;;;;;0.30;0.30;;;;;;;13.99;37.42;100659.38;4985818;28;20156;-70
2023/04/10 06:11:21;;;;;;;0.30;0.30;;;;;;;14.03;37.48;100659.66;4980570;28;20053;-70
2023/04/10 06:13:51;;;;;;;0.30;0.30;;;;;;;14.25;37.03;100655.75;4969732;28;20045;-70
2023/04/10 06:16:18;;;;;;;0.22;0.22;;;;;;;14.39;36.85;100658.75;5014517;28;20053;-70
2023/04/10 06:18:51;;;;;;;0.33;0.20;;;;;;;14.35;36.25;100657.66;4987899;28;20096;-71
2023/04/10 06:21:19;;;;;;;0.20;0.20;;;;;;;14.11;36.47;100661.81;4960391;28;20061;-70
2023/04/10 06:23:45;;;;;;;0.30;0.30;;;;;;;14.17;36.99;100659.88;4967694;28;20505;-70
2023/04/10 06:26:12;;;;;;;0.40;0.40;;;;;;;14.26;36.60;100660.97;4998810;28;20462;-70
2023/04/10 06:28:43;;;;;;;0.30;0.30;;;;;;;14.19;36.75;100652.19;4980612;28;20193;-70
2023/04/10 06:31:12;;;;;;;0.40;0.30;;;;;;;14.29;36.76;100663.16;5001279;28;20079;-70
2023/04/10 06:33:39;;;;;;;0.20;0.20;;;;;;;14.41;36.46;100660.09;5012903;28;20570;-70
2023/04/10 06:36:07;;;;;;;0.25;0.25;;;;;;;14.34;36.30;100659.59;5005608;28;20060;-70
2023/04/10 06:38:40;;;;;;;0.20;0.20;;;;;;;14.27;36.46;100659.03;5001022;28;20053;-70
2023/04/10 06:41:07;;;;;;;0.20;0.20;;;;;;;13.98;36.59;100624.72;4987057;28;20161;-70
2023/04/10 06:43:36;;;;;;;0.20;0.20;;;;;;;14.09;36.99;100669.53;4996435;28;20115;-70
2023/04/10 06:46:04;;;;;;;;;;;;;;;13.94;37.13;100669.53;4982977;28;20480;-70
2023/04/10 06:48:31;;;;;;;0.20;0.20;;;;;;;13.85;37.25;100670.13;5021009;28;19925;-70
2023/04/10 06:50:59;;;;;;;0.20;0.20;;;;;;;13.79;37.08;100668.44;5022533;28;20053;-69
2023/04/10 06:53:26;;;;;;;0.20;0.20;;;;;;;13.72;37.28;100678.91;5024000;28;20370;-70
2023/04/10 06:55:52;;;;;;;0.20;0.20;;;;;;;13.74;37.42;100671.22;5025784;28;20485;-70
2023/04/10 06:58:18;;;;;;;0.20;0.20;;;;;;;13.84;37.20;100676.72;5002093;28;20558;-70
2023/04/10 07:00:44;;;;;;;0.30;0.30;;;;;;;13.94;37.22;100678.63;5003588;28;20057;-69
2023/04/10 07:03:12;;;;;;;0.30;0.30;;;;;;;14.03;36.70;100676.97;5004904;28;20049;-69
2023/04/10 07:05:38;;;;;;;0.30;0.30;;;;;;;14.08;36.61;100676.13;5005303;28;20046;-69
2023/04/10 07:08:04;;;;;;;0.30;0.30;;;;;;;13.95;37.07;100682.19;5005674;28;20056;-69
2023/04/10 07:10:30;;;;;;;0.43;0.32;;;;;;;13.92;36.78;100678.09;5003639;28;20050;-70
2023/04/10 07:12:57;;;;;;;0.30;0.30;;;;;;;13.96;36.40;100678.34;5004014;28;20417;-69
2023/04/10 07:15:24;;;;;;;0.20;0.20;;;;;;;13.88;36.81;100676.97;5003260;28;20053;-69
2023/04/10 07:17:50;;;;;;;0.40;0.30;;;;;;;13.80;36.81;100674.78;4967677;28;20074;-69
2023/04/10 07:20:18;;;;;;;0.38;0.30;;;;;;;13.79;36.57;100679.44;5004588;28;20580;-69
2023/04/10 07:22:44;;;;;;;;;;;;;;;13.86;36.38;100680.00;5008241;28;20044;-70
2023/04/10 07:25:10;;;;;;;0.20;0.20;;;;;;;13.93;36.24;100682.47;4991060;28;19929;-70
2023/04/10 07:27:38;;;;;;;0.30;0.30;;;;;;;13.93;36.16;100671.47;5025897;28;20398;-70
2023/04/10 07:30:05;;;;;;;0.30;0.30;;;;;;;14.01;36.38;100676.41;5025952;28;20424;-69
2023/04/10 07:32:33;;;;;;;;;;;;;;;13.94;36.33;100686.03;5025773;28;20045;-70
2023/04/10 07:34:59;;;;;;;0.28;0.28;;;;;;;13.79;36.99;100675.88;5024857;28;19928;-70
2023/04/10 07:37:27;;;;;;;0.22;0.22;;;;;;;13.60;37.41;100674.50;5009688;28;20052;-71
2023/04/10 07:39:52;;;;;;;;;;;;;;;13.58;37.72;100675.88;5007217;28;20057;-70
2023/04/10 07:42:19;;;;;;;0.30;0.30;;;;;;;13.58;37.56;100678.59;5007948;28;19924;-70
2023/04/10 07:44:45;;;;;;;0.20;0.20;;;;;;;13.51;37.99;100680.81;5011009;28;20053;-70
2023/04/10 07:47:11;;;;;;;0.20;0.20;;;;;;;13.40;37.96;100671.72;5028092;28;20053;-70
2023/04/10 07:49:37;;;;;;;0.43;0.20;;;;;;;13.44;37.85;100687.41;5028794;28;20143;-69
2023/04/10 07:52:03;;;;;;;0.20;0.20;;;;;;;13.50;37.99;100682.72;5023942;28;20049;-69
2023/04/10 07:54:33;;;;;;;0.20;0.20;;;;;;;13.45;37.61;100663.50;5025404;28;20144;-69
2023/04/10 07:56:59;;;;;;;0.22;0.22;;;;;;;13.61;37.44;100678.09;4991861;28;20208;-69
2023/04/10 07:59:27;;;;;;;0.20;0.20;;;;;;;13.63;37.46;100675.03;5020568;28;20756;-70
2023/04/10 08:01:53;;;;;;;0.20;0.20;;;;;;;13.60;37.26;100676.44;5026914;28;20545;-69
2023/04/10 08:04:19;;;;;;;0.20;0.20;;;;;;;13.65;37.43;100670.94;5027461;28;20057;-69
2023/04/10 08:06:45;;;;;;;0.28;0.28;;;;;;;13.81;37.13;100676.44;5025583;28;20121;-69
2023/04/10 08:09:11;;;;;;;0.20;0.20;;;;;;;13.82;37.13;100686.31;5027868;28;20072;-69
2023/04/10 08:11:39;;;;;;;0.28;0.28;;;;;;;13.74;37.15;100683.03;5027157;28;20433;-70
2023/04/10 08:14:05;;;;;;;0.30;0.30;;;;;;;13.69;37.14;100682.22;5009404;28;20534;-70
2023/04/10 08:16:33;;;;;;;0.50;0.30;;;;;;;13.74;37.19;100680.28;5026571;28;20485;-69
2023/04/10 08:18:59;;;;;;;0.20;0.20;;;;;;;13.71;36.94;100672.56;5008916;28;20299;-69
2023/04/10 08:21:27;;;;;;;0.15;0.15;;;;;;;13.47;37.06;100669.53;5009943;28;20057;-69
2023/04/10 08:23:54;;;;;;;0.20;0.20;;;;;;;13.34;37.04;100679.13;5030393;28;20112;-68
2023/04/10 08:26:29;;;;;;;0.20;0.20;;;;;;;13.36;37.17;100682.41;4970501;28;10000970;-70
2023/04/10 08:28:58;;;;;;;0.28;0.28;;;;;;;13.43;36.77;100683.03;5024684;28;20348;-70
2023/04/10 08:31:26;;;;;;;0.45;0.38;;;;;;;13.53;36.92;100678.63;5021814;28;20046;-71
2023/04/10 08:33:52;;;;;;;0.30;0.30;;;;;;;13.80;36.81;100674.78;5022630;28;20132;-70
2023/04/10 08:36:18;;;;;;;0.30;0.30;;;;;;;13.97;36.42;100674.47;5026758;28;20045;-69
2023/04/10 08:38:45;;;;;;;0.35;0.35;;;;;;;14.13;36.26;100667.91;5028596;28;20046;-70
2023/04/10 08:41:13;;;;;;;0.30;0.30;;;;;;;14.65;35.71;100667.75;5019712;28;20052;-68
2023/04/10 08:43:39;;;;;;;0.40;0.40;;;;;;;15.03;34.92;100659.06;5024620;28;20455;-68
2023/04/10 08:46:07;;;;;;;0.47;0.47;;;;;;;15.31;34.43;100674.03;5022861;28;20336;-69
2023/04/10 08:48:38;;;;;;;0.50;0.40;;;;;;;16.29;33.13;100663.31;5020238;28;20615;-70
2023/04/10 08:51:07;;;;;;;0.30;0.30;;;;;;;16.65;32.01;100670.34;5020950;28;20053;-70
2023/04/10 08:53:40;;;;;;;0.30;0.30;;;;;;;16.65;31.71;100662.06;5020960;28;20442;-70
2023/04/10 08:56:07;;;;;;;0.30;0.30;;;;;;;16.44;32.31;100663.13;5023178;28;20065;-70
2023/04/10 08:58:34;;;;;;;0.40;0.40;;;;;;;16.27;32.29;100641.53;5022071;28;20460;-70
2023/04/10 09:01:01;;;;;;;0.30;0.30;;;;;;;16.81;32.17;100660.75;5026510;28;20107;-70
2023/04/10 09:03:29;;;;;;;0.30;0.30;;;;;;;16.68;32.15;100662.31;4993389;28;20428;-69
2023/04/10 09:05:57;;;;;;;0.30;0.30;;;;;;;16.52;31.75;100656.16;5029172;28;20052;-70
2023/04/10 09:08:23;;;;;;;0.30;0.30;;;;;;;16.33;32.60;100649.75;4992227;28;20157;-69
2023/04/10 09:10:49;;;;;;;0.30;0.30;;;;;;;16.16;32.60;100660.16;5008319;28;20049;-69
2023/04/10 09:13:15;;;;;;;0.60;0.40;;;;;;;16.37;32.39;100665.44;4990412;28;20103;-69
2023/04/10 09:15:58;;;;;;;0.30;0.30;;;;;;;16.14;32.40;100664.31;5010164;28;20049;-70
2023/04/10 09:18:40;;;;;;;0.30;0.30;;;;;;;16.05;32.33;100655.00;4977089;28;20188;-70
2023/04/10 09:21:07;;;;;;;0.30;0.30;;;;;;;15.90;32.75;100651.28;5009220;28;20103;-70
2023/04/10 09:23:33;;;;;;;0.30;0.30;;;;;;;15.89;32.59;100657.91;4988209;28;20050;-70
2023/04/10 09:25:59;;;;;;;0.30;0.30;;;;;;;15.88;32.70;100659.81;5011302;28;20163;-70
2023/04/10 09:28:25;;;;;;;0.30;0.30;;;;;;;15.74;32.88;100659.66;5028947;28;20052;-70
2023/04/10 09:30:52;;;;;;;0.40;0.40;;;;;;;15.92;32.67;100653.75;5028903;28;20037;-70
2023/04/10 09:33:22;;;;;;;0.30;0.30;;;;;;;16.27;32.13;100646.22;5006278;28;20046;-70
2023/04/10 09:35:50;;;;;;;0.30;0.30;;;;;;;16.43;32.06;100653.22;5008854;28;20042;-70
2023/04/10 09:38:18;;;;;;;0.30;0.30;;;;;;;16.44;31.66;100643.81;5027521;28;20100;-70
2023/04/10 09:40:45;;;;;;;0.47;0.47;;;;;;;16.33;32.15;100645.06;4993219;28;20049;-70
2023/04/10 09:43:23;;;;;;;0.40;0.40;;;;;;;16.64;31.58;100635.59;5008067;28;20050;-70
2023/04/10 09:45:51;;;;;;;0.30;0.30;;;;;;;16.68;31.58;100643.00;5028469;28;20049;-70
2023/04/10 09:48:17;;;;;;;0.30;0.30;;;;;;;16.53;31.54;100643.19;5011261;28;20053;-70
2023/04/10 09:50:44;;;;;;;0.30;0.30;;;;;;;16.24;31.98;100633.03;5028210;28;20540;-70
2023/04/10 09:53:13;;;;;;;0.40;0.40;;;;;;;16.15;32.18;100643.88;5004921;28;20127;-70
2023/04/10 09:55:40;;;;;;;0.60;0.60;;;;;;;17.02;31.43;100635.69;5007364;28;20304;-70
2023/04/10 09:58:08;;;;;;;0.40;0.40;;;;;;;17.91;29.90;100641.44;5007314;28;20325;-70
2023/04/10 10:00:39;;;;;;;0.30;0.30;;;;;;;17.50;30.18;100645.72;5006075;28;20062;-70
2023/04/10 10:03:07;;;;;;;0.50;0.50;;;;;;;17.31;30.35;100639.41;5022543;28;20045;-70
2023/04/10 10:05:35;;;;;;;0.60;0.60;;;;;;;18.00;29.52;100633.25;5006698;28;20049;-70
2023/04/10 10:08:01;;;;;;;0.70;0.70;;;;;;;18.74;28.36;100636.28;5008690;28;20099;-70
2023/04/10 10:10:29;;;;;;;0.80;0.80;;;;;;;19.34;27.71;100639.97;4992410;28;20041;-70
2023/04/10 10:12:58;;;;;;;0.90;0.90;;;;;;;19.96;26.96;100630.91;5027594;28;20464;-70
2023/04/10 10:15:33;;;;;;;1.05;0.80;;;;;;;20.71;25.66;100634.16;5028232;28;20782;-70
2023/04/10 10:18:06;;;;;;;1.00;0.90;;;;;;;21.05;25.61;100636.19;5010568;28;20079;-70
2023/04/10 10:20:34;;;;;;;0.52;0.52;;;;;;;21.01;25.34;100631.63;5009248;28;20045;-70
2023/04/10 10:23:02;;;;;;;1.30;1.20;;;;;;;20.47;26.50;100627.88;5026804;28;20546;-70
2023/04/10 10:25:30;;;;;;;1.10;1.00;;;;;;;20.68;25.67;100621.72;5010181;28;20099;-70
2023/04/10 10:28:02;;;;;;;1.00;1.00;;;;;;;21.22;25.21;100626.19;5008881;28;20049;-70
2023/04/10 10:30:29;;;;;;;1.00;1.00;;;;;;;21.81;24.52;100633.22;5027031;28;20091;-71
2023/04/10 10:32:57;;;;;;;0.80;0.80;;;;;;;21.71;24.04;100626.03;5009531;28;20160;-71
2023/04/10 10:35:25;;;;;;;0.60;0.50;;;;;;;21.30;24.53;100617.06;5027597;28;20256;-71
2023/04/10 10:37:52;;;;;;;0.90;0.90;;;;;;;21.19;24.82;100615.75;5027698;28;20107;-71
2023/04/10 10:40:23;;;;;;;0.43;0.43;;;;;;;21.63;24.49;100616.53;5009405;28;20041;-71
2023/04/10 10:43:00;;;;;;;0.50;0.50;;;;;;;20.89;25.27;100610.00;5026304;28;20049;-71
2023/04/10 10:45:36;;;;;;;0.90;0.90;;;;;;;19.81;27.10;100603.56;5009970;28;20139;-71
2023/04/10 10:48:02;;;;;;;1.30;1.20;;;;;;;21.08;25.73;100604.13;5024933;28;20057;-70
2023/04/10 10:50:53;;;;;;;1.10;1.10;;;;;;;22.41;23.58;100608.25;5022024;28;20349;-70
2023/04/10 10:53:41;;;;;;;1.10;1.10;;;;;;;23.13;22.56;100598.28;5013377;28;20523;-70
2023/04/10 10:56:32;;;;;;;1.10;1.10;;;;;;;23.17;22.40;100605.59;5018621;28;20107;-70
2023/04/10 10:59:00;;;;;;;0.80;0.80;;;;;;;23.12;22.39;100605.81;4992997;28;20049;-70
2023/04/10 11:01:27;;;;;;;1.30;1.20;;;;;;;22.19;23.50;100615.72;5007830;28;20934;-70
2023/04/10 11:03:53;;;;;;;1.10;1.10;;;;;;;22.55;23.21;100604.44;5024807;28;20053;-70
2023/04/10 11:06:20;;;;;;;1.30;1.20;;;;;;;23.67;22.14;100599.44;5025119;28;20050;-70
2023/04/10 11:08:47;;;;;;;0.90;0.90;;;;;;;24.32;21.08;100601.63;5028491;28;20049;-70
2023/04/10 11:11:16;;;;;;;1.13;1.13;;;;;;;24.16;21.03;100607.91;5007656;28;20057;-71
2023/04/10 11:14:16;;;;;;;1.30;1.20;;;;;;;24.25;21.10;100610.59;5026194;28;20501;-72
2023/04/10 11:16:45;;;;;;;1.40;1.25;;;;;;;24.58;20.80;100600.47;4993653;28;20038;-70
2023/04/10 11:19:12;;;;;;;1.20;1.20;;;;;;;24.94;20.29;100607.16;5025542;28;20049;-71
2023/04/10 11:22:07;;;;;;;1.23;1.20;;;;;;;25.86;19.66;100603.75;5028320;28;20140;-71
2023/04/10 11:24:58;;;;;;;1.30;1.20;;;;;;;26.11;19.09;100592.38;4959761;28;20045;-71
2023/04/10 11:27:45;;;;;;;0.80;0.80;;;;;;;26.40;18.73;100587.50;5008731;28;20053;-71
2023/04/10 11:30:30;;;;;;;0.50;0.50;;;;;;;24.48;20.00;100593.38;5001216;28;20042;-70
2023/04/10 11:32:56;;;;;;;0.50;0.50;;;;;;;22.76;22.03;100596.09;4994571;28;20128;-70
2023/04/10 11:35:24;;;;;;;1.02;1.02;;;;;;;21.65;22.90;100597.56;5006490;28;20137;-71
2023/04/10 11:37:51;;;;;;;0.40;0.40;;;;;;;21.28;23.79;100590.72;5003265;28;20050;-70
2023/04/10 11:40:17;;;;;;;0.50;0.50;;;;;;;20.56;24.34;100591.78;5003556;28;20513;-70
2023/04/10 11:42:44;;;;;;;0.40;0.40;;;;;;;19.59;25.50;100591.38;5021885;28;20054;-69
2023/04/10 11:45:28;;;;;;;1.42;1.10;;;;;;;19.66;25.85;100588.13;5005397;28;20053;-70
2023/04/10 11:47:54;;;;;;;0.80;0.80;;;;;;;21.34;24.03;100593.00;5024310;28;20071;-70
2023/04/10 11:50:20;;;;;;;0.50;0.50;;;;;;;21.73;23.83;100597.88;5006219;28;20069;-70